Ana Sayfa
METAR-TAF:

METAR-TAF

Havaalanları :

Raton Municipal Airport (Crews Field)

Raton, New Mexico, Amerika Birleşik Devletleri

Enlem: 36-44-31N, Boylam: 104-39-28W, yükseklik: 1935 m

Güncel hava durumu gözlemi

Rapor saat 10:53 UTC de 22 dakika önce yapıldı.
Rüzgar doğudan 6 kt
Sıcaklık 10°C
Nem 87%
Basınç 1016 hPa
Görüş mesafesi: 16.1 km
Açık gökyüzü

METAR: KRTN 161053Z AUTO 08006KT 10SM CLR 10/08 A3001 RMK AO2 SLP072 T01000078

Saat: 05:15 (11:15 UTC)


TAF: eksik

4.000'den fazla havaalanı için hava durumu gözlemleri ve tahminleri (METAR ve TAF raporları).

Kullanılabilir istasyonlar harita üzerinde sarı ve kırmızı noktalarla gösterilir.

İstasyonun adını görmek için fareyi noktanın üzerinde gezdirin.

Sonrasında hava gözlem ve tahminlerini görmek için tıklayın.

Haritayı değiştirmek için: yaklaştırmak için siyah artı işaretli yeşil düğmeye ve uzaklaştırmak için de eksi işaretli düğmeye hızla tıklayın; bitişik haritalar için yeşil okları kullanın.


METAR-TAF: